createdAt,value
2022-08-03T00:06:04.514Z,22.50
2022-08-03T00:12:07.864Z,22.50
2022-08-03T00:18:10.330Z,22.40
2022-08-03T00:24:12.482Z,22.50
2022-08-03T00:30:14.882Z,22.50
2022-08-03T00:36:19.456Z,22.50
2022-08-03T00:42:21.909Z,22.50
2022-08-03T00:48:33.701Z,22.50
2022-08-03T00:54:38.154Z,22.40
2022-08-03T01:00:41.836Z,22.40
2022-08-03T01:06:52.896Z,22.40
2022-08-03T01:14:01.559Z,22.40
2022-08-03T01:19:54.712Z,22.40
2022-08-03T01:26:34.532Z,22.40
2022-08-03T01:33:10.707Z,22.30
2022-08-03T01:39:14.064Z,22.20
2022-08-03T01:45:19.051Z,22.10
2022-08-03T01:51:22.654Z,22.00
2022-08-03T01:57:25.835Z,21.90
2022-08-03T02:03:30.381Z,21.90
2022-08-03T02:09:33.891Z,21.90
2022-08-03T02:15:39.989Z,21.80
2022-08-03T02:21:55.687Z,21.70
2022-08-03T02:28:06.679Z,21.60
2022-08-03T02:34:13.549Z,21.50
2022-08-03T02:40:16.942Z,21.40
2022-08-03T02:46:21.432Z,21.40
2022-08-03T02:52:28.571Z,21.40
2022-08-03T02:58:32.685Z,21.30
2022-08-03T03:04:35.782Z,21.30
2022-08-03T03:10:39.424Z,21.20
2022-08-03T03:16:43.198Z,21.20
2022-08-03T03:22:49.260Z,21.20
2022-08-03T03:28:51.514Z,21.30
2022-08-03T03:34:56.179Z,21.30
2022-08-03T03:40:58.695Z,21.50
2022-08-03T03:47:01.124Z,21.70
2022-08-03T03:53:04.966Z,21.90
2022-08-03T03:59:11.755Z,22.10
2022-08-03T04:05:33.149Z,22.30
2022-08-03T04:11:41.171Z,22.50
2022-08-03T04:17:44.058Z,22.80
2022-08-03T04:23:50.210Z,23.00
2022-08-03T04:29:54.524Z,23.30
2022-08-03T04:36:01.607Z,23.50
2022-08-03T04:42:09.041Z,23.50
2022-08-03T04:48:11.587Z,23.60
2022-08-03T04:54:14.196Z,23.90
2022-08-03T05:00:17.241Z,24.20
2022-08-03T05:06:19.561Z,24.40
2022-08-03T05:12:32.053Z,24.80
2022-08-03T05:18:36.358Z,25.10
2022-08-03T05:24:38.657Z,25.30
2022-08-03T05:30:40.852Z,25.50
2022-08-03T05:36:43.109Z,25.70
2022-08-03T05:42:45.539Z,26.20
2022-08-03T05:48:48.020Z,26.90
2022-08-03T05:54:56.962Z,27.40
2022-08-03T06:00:59.963Z,32.50
2022-08-03T06:07:02.521Z,34.80
2022-08-03T06:13:04.999Z,36.10
2022-08-03T06:19:07.559Z,36.60
2022-08-03T06:25:12.982Z,36.20
2022-08-03T06:31:16.475Z,37.10
2022-08-03T06:37:19.326Z,32.40
2022-08-03T06:43:21.852Z,35.10
2022-08-03T06:49:24.569Z,31.90
2022-08-03T06:55:27.163Z,36.10
2022-08-03T07:01:29.661Z,33.10
2022-08-03T07:07:32.002Z,34.60
2022-08-03T07:13:34.260Z,35.10
2022-08-03T07:19:36.647Z,34.70
2022-08-03T07:25:39.383Z,37.50
2022-08-03T07:31:42.394Z,39.20
2022-08-03T07:37:54.589Z,40.30
2022-08-03T07:43:57.352Z,40.10
2022-08-03T07:49:59.786Z,40.20
2022-08-03T07:56:02.322Z,40.30
2022-08-03T08:02:08.196Z,39.80
2022-08-03T08:08:10.705Z,41.00
2022-08-03T08:14:15.881Z,42.00
2022-08-03T08:20:27.780Z,42.30
2022-08-03T08:26:31.082Z,41.90
2022-08-03T08:32:33.431Z,41.20
2022-08-03T08:38:35.961Z,41.00
2022-08-03T08:44:38.155Z,41.50
2022-08-03T08:50:40.475Z,41.40
2022-08-03T08:56:44.613Z,41.60
2022-08-03T09:02:47.293Z,41.80
2022-08-03T09:08:49.760Z,41.70
2022-08-03T09:15:14.883Z,40.70
2022-08-03T09:21:30.750Z,38.70
2022-08-03T09:27:47.246Z,40.70
2022-08-03T09:33:49.892Z,38.50
2022-08-03T09:39:52.616Z,38.00
2022-08-03T09:46:07.733Z,36.90
2022-08-03T09:52:38.135Z,37.90
2022-08-03T09:58:47.755Z,40.20
2022-08-03T10:04:52.943Z,38.50
2022-08-03T10:11:00.336Z,38.80
2022-08-03T10:17:02.828Z,37.70
2022-08-03T10:23:06.210Z,35.90
2022-08-03T10:29:13.164Z,37.10
2022-08-03T10:35:21.119Z,38.50
2022-08-03T10:41:35.541Z,39.00
2022-08-03T10:47:38.071Z,39.20
2022-08-03T10:53:54.702Z,37.20
2022-08-03T10:59:59.155Z,38.20
2022-08-03T11:06:19.367Z,38.10
2022-08-03T11:12:28.399Z,37.90
2022-08-03T11:18:33.245Z,37.50
2022-08-03T11:24:41.129Z,36.50
2022-08-03T11:30:43.295Z,35.80
2022-08-03T11:37:22.459Z,34.70
2022-08-03T11:43:31.895Z,35.60
2022-08-03T11:49:34.701Z,36.50
2022-08-03T11:55:38.840Z,36.80
2022-08-03T12:01:41.796Z,37.10
2022-08-03T12:08:03.810Z,37.60
2022-08-03T12:14:49.993Z,38.60
2022-08-03T12:20:35.262Z,38.90
2022-08-03T12:26:52.199Z,39.20
2022-08-03T12:33:13.280Z,38.90
2022-08-03T12:39:15.647Z,39.80
2022-08-03T12:45:21.798Z,40.60
2022-08-03T12:51:24.016Z,40.50
2022-08-03T12:57:26.504Z,40.10
2022-08-03T13:03:39.123Z,39.40
2022-08-03T13:09:54.889Z,38.40
2022-08-03T13:15:57.074Z,37.20
2022-08-03T13:22:04.351Z,36.60
2022-08-03T13:28:09.805Z,35.60
2022-08-03T13:34:14.747Z,35.40
2022-08-03T13:40:17.075Z,35.10
2022-08-03T13:46:20.780Z,34.90
2022-08-03T13:52:23.130Z,34.30
2022-08-03T13:58:25.445Z,33.80
2022-08-03T14:04:28.025Z,33.80
2022-08-03T14:10:30.264Z,33.20
2022-08-03T14:16:32.702Z,33.50
2022-08-03T14:22:35.456Z,33.50
2022-08-03T14:28:38.047Z,33.60
2022-08-03T14:34:40.682Z,33.20
2022-08-03T14:40:43.349Z,33.30
2022-08-03T14:46:45.728Z,33.30
2022-08-03T14:52:48.261Z,33.20
2022-08-03T14:58:50.503Z,33.20
2022-08-03T15:04:53.184Z,33.10
2022-08-03T15:10:55.589Z,33.00
2022-08-03T15:16:58.105Z,32.80
2022-08-03T15:23:00.488Z,32.50
2022-08-03T15:29:03.987Z,32.30
2022-08-03T15:35:06.665Z,32.10
2022-08-03T15:41:13.754Z,32.00
2022-08-03T15:47:17.004Z,31.90
2022-08-03T15:53:19.393Z,31.80
2022-08-03T15:59:21.541Z,31.60
2022-08-03T16:05:23.825Z,31.40
2022-08-03T16:11:26.238Z,31.20
2022-08-03T16:17:28.646Z,31.30
2022-08-03T16:23:31.322Z,31.20
2022-08-03T16:29:36.622Z,31.00
2022-08-03T16:35:38.990Z,31.00
2022-08-03T16:41:53.762Z,30.90
2022-08-03T16:48:05.723Z,30.80
2022-08-03T16:54:12.569Z,30.80
2022-08-03T17:00:33.988Z,30.50
2022-08-03T17:06:45.200Z,30.30
2022-08-03T17:12:47.633Z,30.10
2022-08-03T17:18:55.608Z,29.80
2022-08-03T17:25:07.434Z,29.40
2022-08-03T17:31:23.524Z,29.20
2022-08-03T17:37:57.830Z,29.00
2022-08-03T17:50:25.049Z,28.60
2022-08-03T17:56:57.467Z,28.50
2022-08-03T18:03:15.991Z,28.30
2022-08-03T18:10:06.742Z,28.20
2022-08-03T18:16:03.383Z,28.00
2022-08-03T18:22:10.008Z,27.80
2022-08-03T18:28:14.308Z,27.70
2022-08-03T18:34:33.123Z,27.60
2022-08-03T18:40:36.941Z,27.50
2022-08-03T18:47:01.570Z,27.30
2022-08-03T18:53:21.937Z,27.20
2022-08-03T18:59:55.147Z,27.10
2022-08-03T19:06:09.480Z,27.00
2022-08-03T19:12:31.090Z,26.90
2022-08-03T19:18:37.728Z,26.70
2022-08-03T19:24:42.261Z,26.60
2022-08-03T19:30:53.510Z,26.50
2022-08-03T19:36:58.611Z,26.40
2022-08-03T19:43:06.503Z,26.30
2022-08-03T19:49:14.703Z,26.20
2022-08-03T19:55:18.963Z,26.00
2022-08-03T20:01:25.148Z,26.00
2022-08-03T20:07:33.235Z,25.90
2022-08-03T20:13:39.044Z,25.80
2022-08-03T20:19:42.564Z,25.60
2022-08-03T20:25:58.231Z,25.50
2022-08-03T20:32:01.690Z,25.40
2022-08-03T20:38:03.984Z,25.30
2022-08-03T20:44:07.220Z,25.20
2022-08-03T20:50:10.573Z,25.10
2022-08-03T20:56:14.595Z,25.10
2022-08-03T21:02:19.713Z,25.10
2022-08-03T21:08:32.803Z,25.10
2022-08-03T21:13:04.818Z,28.80
2022-08-03T21:14:43.778Z,25.00
2022-08-03T21:20:47.185Z,25.00
2022-08-03T21:26:51.063Z,25.00
2022-08-03T21:32:54.446Z,24.90
2022-08-03T21:38:59.345Z,24.70
2022-08-03T21:45:05.919Z,24.70
2022-08-03T21:51:10.075Z,24.60
2022-08-03T21:57:23.280Z,24.60
2022-08-03T22:03:26.779Z,24.50
2022-08-03T22:09:31.131Z,24.40
2022-08-03T22:15:33.737Z,24.20
2022-08-03T22:21:36.744Z,24.10
2022-08-03T22:27:41.058Z,24.00
2022-08-03T22:33:46.069Z,23.80
2022-08-03T22:39:48.477Z,23.80
2022-08-03T22:46:09.363Z,23.60
2022-08-03T22:52:15.102Z,23.60
2022-08-03T22:58:18.212Z,23.60
2022-08-03T23:04:21.161Z,23.50
2022-08-03T23:10:25.415Z,23.50
2022-08-03T23:16:29.662Z,23.50
2022-08-03T23:22:34.114Z,23.40
2022-08-03T23:28:38.718Z,23.40
2022-08-03T23:35:00.818Z,23.30
2022-08-03T23:41:04.853Z,23.30
2022-08-03T23:47:07.177Z,23.20
2022-08-03T23:53:24.514Z,23.10
2022-08-03T23:59:42.907Z,23.10
